createdAt,value
2018-12-17T00:01:19.196Z,31.97
2018-12-17T00:03:53.749Z,35.47
2018-12-17T00:06:24.901Z,37.00
2018-12-17T00:08:55.942Z,36.60
2018-12-17T00:11:34.017Z,38.43
2018-12-17T00:14:07.700Z,36.53
2018-12-17T00:16:41.477Z,34.90
2018-12-17T00:19:12.141Z,38.27
2018-12-17T00:21:43.118Z,34.80
2018-12-17T00:24:23.748Z,36.77
2018-12-17T00:26:57.172Z,31.10
2018-12-17T00:29:28.557Z,31.43
2018-12-17T00:31:59.749Z,38.00
2018-12-17T00:34:30.249Z,39.53
2018-12-17T00:37:00.783Z,43.93
2018-12-17T00:39:32.091Z,40.00
2018-12-17T00:42:02.511Z,35.50
2018-12-17T00:44:43.929Z,35.83
2018-12-17T00:47:13.168Z,39.40
2018-12-17T00:49:44.482Z,40.67
2018-12-17T00:52:14.880Z,36.57
2018-12-17T00:54:54.768Z,30.20
2018-12-17T00:57:25.180Z,37.87
2018-12-17T00:59:56.191Z,31.93
2018-12-17T01:02:27.597Z,31.20
2018-12-17T01:04:56.687Z,35.40
2018-12-17T01:07:37.468Z,30.00
2018-12-17T01:10:10.725Z,34.00
2018-12-17T01:12:39.841Z,25.80
2018-12-17T01:15:10.896Z,28.63
2018-12-17T01:17:45.355Z,26.37
2018-12-17T01:20:16.717Z,21.93
2018-12-17T01:22:47.432Z,23.97
2018-12-17T01:25:16.276Z,19.83
2018-12-17T01:27:47.444Z,19.37
2018-12-17T01:30:18.505Z,13.13
2018-12-17T01:32:52.116Z,12.00
2018-12-17T01:35:23.368Z,12.47
2018-12-17T01:37:52.318Z,14.67
2018-12-17T01:40:30.091Z,16.67
2018-12-17T01:43:00.453Z,15.13
2018-12-17T01:45:31.512Z,13.87
2018-12-17T01:48:02.531Z,13.83
2018-12-17T01:50:36.461Z,14.47
2018-12-17T01:53:07.316Z,9.30
2018-12-17T01:55:36.025Z,7.83
2018-12-17T01:58:10.432Z,6.80
2018-12-17T02:00:44.312Z,7.27
2018-12-17T02:03:17.736Z,9.80
2018-12-17T02:05:52.600Z,23.40
2018-12-17T02:08:21.700Z,22.70
2018-12-17T02:10:52.985Z,26.00
2018-12-17T02:13:23.971Z,27.43
2018-12-17T02:15:52.929Z,25.40
2018-12-17T02:18:22.025Z,23.10
2018-12-17T02:21:02.676Z,26.40
2018-12-17T02:23:33.082Z,27.63
2018-12-17T02:26:04.317Z,28.17
2018-12-17T02:28:36.217Z,26.50
2018-12-17T02:31:06.022Z,28.27
2018-12-17T02:33:43.074Z,27.97
2018-12-17T02:36:18.012Z,25.57
2018-12-17T02:38:49.020Z,29.87
2018-12-17T02:41:20.353Z,36.10
2018-12-17T02:44:01.072Z,38.23
2018-12-17T02:46:30.125Z,36.67
2018-12-17T02:49:05.926Z,29.17
2018-12-17T02:51:38.062Z,33.97
2018-12-17T02:54:09.065Z,33.90
2018-12-17T02:56:40.552Z,30.73
2018-12-17T02:59:09.229Z,28.07
2018-12-17T03:01:40.226Z,30.90
2018-12-17T03:04:11.391Z,34.17
2018-12-17T03:06:43.093Z,36.53
2018-12-17T03:09:13.496Z,33.17
2018-12-17T03:11:44.902Z,30.10
2018-12-17T03:14:15.975Z,31.63
2018-12-17T03:16:51.631Z,31.23
2018-12-17T03:19:22.397Z,31.20
2018-12-17T03:21:51.742Z,33.73
2018-12-17T03:24:27.688Z,32.43
2018-12-17T03:27:00.069Z,33.77
2018-12-17T03:29:40.765Z,34.33
2018-12-17T03:32:11.291Z,29.67
2018-12-17T03:34:48.830Z,28.77
2018-12-17T03:37:17.853Z,32.70
2018-12-17T03:39:47.432Z,26.60
2018-12-17T03:42:21.516Z,26.60
2018-12-17T03:44:56.430Z,26.97
2018-12-17T03:47:28.805Z,29.80
2018-12-17T03:50:00.066Z,24.27
2018-12-17T03:52:30.946Z,26.67
2018-12-17T03:55:02.090Z,27.53
2018-12-17T03:57:31.448Z,28.23
2018-12-17T04:00:04.141Z,30.97
2018-12-17T04:02:34.655Z,29.10
2018-12-17T04:05:11.948Z,31.77
2018-12-17T04:07:41.505Z,28.50
2018-12-17T04:10:11.897Z,29.50
2018-12-17T04:12:41.281Z,26.40
2018-12-17T04:15:16.664Z,25.63
2018-12-17T04:17:51.337Z,31.33
2018-12-17T04:20:21.801Z,31.10
2018-12-17T04:22:50.997Z,31.40
2018-12-17T04:25:19.846Z,32.00
2018-12-17T04:27:53.721Z,42.70
2018-12-17T04:30:24.620Z,33.67
2018-12-17T04:32:53.790Z,39.13
2018-12-17T04:35:27.942Z,36.70
2018-12-17T04:38:05.611Z,38.33
2018-12-17T04:40:34.686Z,33.47
2018-12-17T04:43:05.780Z,33.67
2018-12-17T04:45:43.722Z,32.40
2018-12-17T04:48:17.604Z,36.60
2018-12-17T04:50:51.159Z,39.10
2018-12-17T04:53:20.369Z,39.23
2018-12-17T04:55:51.557Z,36.07
2018-12-17T04:58:25.501Z,34.37
2018-12-17T05:00:59.974Z,35.63
2018-12-17T05:03:30.661Z,36.20
2018-12-17T05:06:01.902Z,34.40
2018-12-17T05:08:33.089Z,38.77
2018-12-17T05:11:04.320Z,34.37
2018-12-17T05:16:07.522Z,32.17
2018-12-17T05:18:38.008Z,36.80
2018-12-17T05:21:09.080Z,33.57
2018-12-17T05:23:41.027Z,35.10
2018-12-17T05:26:10.125Z,31.13
2018-12-17T05:28:47.885Z,35.07
2018-12-17T05:31:19.064Z,29.47
2018-12-17T05:33:49.729Z,32.27
2018-12-17T05:36:21.013Z,30.37
2018-12-17T05:38:52.370Z,31.37
2018-12-17T05:41:23.449Z,29.17
2018-12-17T05:43:57.396Z,33.83
2018-12-17T05:46:32.795Z,36.87
2018-12-17T05:49:03.751Z,31.00
2018-12-17T05:51:34.987Z,34.57
2018-12-17T05:54:10.942Z,31.13
2018-12-17T05:56:44.997Z,29.07
2018-12-17T05:59:15.960Z,33.83
2018-12-17T06:01:47.337Z,30.07
2018-12-17T06:04:17.988Z,31.67
2018-12-17T06:06:52.144Z,32.10
2018-12-17T06:09:22.177Z,31.73
2018-12-17T06:11:53.976Z,32.40
2018-12-17T06:14:27.141Z,31.37
2018-12-17T06:17:02.228Z,32.60
2018-12-17T06:19:33.357Z,35.30
2018-12-17T06:22:09.641Z,31.93
2018-12-17T06:24:38.304Z,36.77
2018-12-17T06:27:09.191Z,36.40
2018-12-17T06:29:40.172Z,38.43
2018-12-17T06:32:11.708Z,32.83
2018-12-17T06:34:42.466Z,35.37
2018-12-17T06:37:13.284Z,37.77
2018-12-17T06:39:51.133Z,40.87
2018-12-17T06:42:25.204Z,43.20
2018-12-17T06:44:55.606Z,40.80
2018-12-17T06:47:26.607Z,38.83
2018-12-17T06:49:58.204Z,39.90
2018-12-17T06:52:32.229Z,33.43
2018-12-17T06:55:03.302Z,35.60
2018-12-17T06:57:34.390Z,35.00
2018-12-17T07:00:07.976Z,31.77
2018-12-17T07:02:39.192Z,33.27
2018-12-17T07:05:10.273Z,33.83
2018-12-17T07:07:42.104Z,34.03
2018-12-17T07:10:16.744Z,35.47
2018-12-17T07:12:47.901Z,33.90
2018-12-17T07:15:18.053Z,30.90
2018-12-17T07:17:55.828Z,33.77
2018-12-17T07:20:27.149Z,35.03
2018-12-17T07:22:58.421Z,32.87
2018-12-17T07:25:35.556Z,32.73
2018-12-17T07:28:06.076Z,30.00
2018-12-17T07:30:35.520Z,29.07
2018-12-17T07:33:06.047Z,31.93
2018-12-17T07:35:36.972Z,38.53
2018-12-17T07:38:07.936Z,29.87
2018-12-17T07:40:39.021Z,35.70
2018-12-17T07:43:12.039Z,39.03
2018-12-17T07:45:42.977Z,41.73
2018-12-17T07:48:20.920Z,33.80
2018-12-17T07:50:52.280Z,34.70
2018-12-17T07:53:23.041Z,34.40
2018-12-17T07:55:52.058Z,30.20
2018-12-17T07:58:21.025Z,36.67
2018-12-17T08:01:00.913Z,31.27
2018-12-17T08:03:34.145Z,35.10
2018-12-17T08:06:05.788Z,36.57
2018-12-17T08:08:36.412Z,36.47
2018-12-17T08:11:08.047Z,36.40
2018-12-17T08:13:37.138Z,36.90
2018-12-17T08:16:13.062Z,30.07
2018-12-17T08:18:42.837Z,35.03
2018-12-17T08:21:12.114Z,32.73
2018-12-17T08:23:43.282Z,26.67
2018-12-17T08:26:33.580Z,29.17
2018-12-17T08:29:04.533Z,30.30
2018-12-17T08:31:33.304Z,31.63
2018-12-17T08:34:04.305Z,35.07
2018-12-17T08:36:34.751Z,31.83
2018-12-17T08:39:12.701Z,30.30
2018-12-17T08:41:43.241Z,29.43
2018-12-17T08:44:12.207Z,35.00
2018-12-17T08:46:52.864Z,31.97
2018-12-17T08:49:29.118Z,30.83
2018-12-17T08:52:03.208Z,36.47
2018-12-17T08:54:34.757Z,37.77
2018-12-17T08:57:03.602Z,33.03
2018-12-17T08:59:32.767Z,33.03
2018-12-17T09:02:03.952Z,36.97
2018-12-17T09:04:37.953Z,39.40
2018-12-17T09:07:11.764Z,38.23
2018-12-17T09:09:43.485Z,34.27
2018-12-17T09:12:14.181Z,36.60
2018-12-17T09:14:42.987Z,33.17
2018-12-17T09:17:13.967Z,34.13
2018-12-17T09:19:45.213Z,39.80
2018-12-17T09:22:18.786Z,36.57
2018-12-17T09:24:53.439Z,34.53
2018-12-17T09:27:23.784Z,29.17
2018-12-17T09:29:52.776Z,26.67
2018-12-17T09:32:22.161Z,30.87
2018-12-17T09:34:51.503Z,39.40
2018-12-17T09:37:35.100Z,36.80
2018-12-17T09:40:05.268Z,31.23
2018-12-17T09:42:34.286Z,37.50
2018-12-17T09:45:12.231Z,34.00
2018-12-17T09:47:41.310Z,24.70
2018-12-17T09:50:12.714Z,22.77
2018-12-17T09:52:41.999Z,19.60
2018-12-17T09:55:20.952Z,21.43
2018-12-17T09:57:51.820Z,15.20
2018-12-17T10:00:25.408Z,17.87
2018-12-17T10:02:56.245Z,13.97
2018-12-17T10:05:30.257Z,18.10
2018-12-17T10:08:01.368Z,22.57
2018-12-17T10:10:31.561Z,22.63
2018-12-17T10:13:04.110Z,19.67
2018-12-17T10:15:43.985Z,18.43
2018-12-17T10:20:50.086Z,15.73
2018-12-17T10:23:21.357Z,22.43
2018-12-17T10:25:59.255Z,18.70
2018-12-17T10:28:31.044Z,18.93
2018-12-17T10:31:02.426Z,16.43
2018-12-17T10:33:36.263Z,17.20
2018-12-17T10:36:06.636Z,21.27
2018-12-17T10:38:44.113Z,19.03
2018-12-17T10:41:14.757Z,18.67
2018-12-17T10:43:44.418Z,20.10
2018-12-17T10:46:15.005Z,19.87
2018-12-17T10:48:50.988Z,18.13
2018-12-17T10:51:21.493Z,19.17
2018-12-17T10:53:52.552Z,16.93
2018-12-17T10:56:23.885Z,18.90
2018-12-17T10:58:54.800Z,17.57
2018-12-17T11:01:34.336Z,17.47
2018-12-17T11:04:05.096Z,18.20
2018-12-17T11:06:41.336Z,22.03
2018-12-17T11:09:15.153Z,24.20
2018-12-17T11:11:45.541Z,22.77
2018-12-17T11:14:14.585Z,19.53
2018-12-17T11:16:45.593Z,20.53
2018-12-17T11:19:25.359Z,22.03
2018-12-17T11:21:56.042Z,18.47
2018-12-17T11:24:25.017Z,18.80
2018-12-17T11:26:56.189Z,19.43
2018-12-17T11:29:27.565Z,21.77
2018-12-17T11:31:58.340Z,21.33
2018-12-17T11:34:29.233Z,21.00
2018-12-17T11:36:58.271Z,21.10
2018-12-17T11:39:36.212Z,20.90
2018-12-17T11:42:06.601Z,20.10
2018-12-17T11:44:39.773Z,20.60
2018-12-17T11:47:10.690Z,24.00
2018-12-17T11:49:44.080Z,17.33
2018-12-17T11:52:14.537Z,17.90
2018-12-17T11:54:45.381Z,19.03
2018-12-17T11:57:24.982Z,25.23
2018-12-17T11:59:55.457Z,16.23
2018-12-17T12:02:24.236Z,19.63
2018-12-17T12:04:53.297Z,18.87
2018-12-17T12:07:22.188Z,16.97
2018-12-17T12:09:51.141Z,17.93
2018-12-17T12:12:22.197Z,24.60
2018-12-17T12:14:53.392Z,21.70
2018-12-17T12:17:27.147Z,25.30
2018-12-17T12:19:56.325Z,21.00
2018-12-17T12:22:27.611Z,22.33
2018-12-17T12:25:00.717Z,18.47
2018-12-17T12:27:32.455Z,17.47
2018-12-17T12:30:04.096Z,15.47
2018-12-17T12:32:33.245Z,13.70
2018-12-17T12:35:15.745Z,18.13
2018-12-17T12:37:49.048Z,26.80
2018-12-17T12:40:20.038Z,17.17
2018-12-17T12:42:51.734Z,17.43
2018-12-17T12:45:21.691Z,16.77
2018-12-17T12:47:59.578Z,22.33
2018-12-17T12:50:32.809Z,23.23
2018-12-17T12:53:03.244Z,25.27
2018-12-17T12:55:32.313Z,24.40
2018-12-17T12:58:07.530Z,28.00
2018-12-17T13:00:36.293Z,26.93
2018-12-17T13:03:07.305Z,25.00
2018-12-17T13:05:37.081Z,25.27
2018-12-17T13:08:10.525Z,24.60
2018-12-17T13:10:39.653Z,28.40
2018-12-17T13:13:10.210Z,26.73
2018-12-17T13:15:47.840Z,22.07
2018-12-17T13:18:19.005Z,21.83
2018-12-17T13:20:50.517Z,22.23
2018-12-17T13:23:23.756Z,28.63
2018-12-17T13:25:57.777Z,30.73
2018-12-17T13:31:21.929Z,27.17
2018-12-17T13:33:54.072Z,27.23
2018-12-17T13:36:26.364Z,24.43
2018-12-17T13:39:04.621Z,25.93
2018-12-17T13:41:42.840Z,22.60
2018-12-17T13:47:06.240Z,21.73
2018-12-17T13:49:35.104Z,16.97
2018-12-17T13:52:11.757Z,23.77
2018-12-17T13:54:42.533Z,19.73
2018-12-17T13:57:11.700Z,18.87
2018-12-17T13:59:42.344Z,18.50
2018-12-17T14:02:11.439Z,23.93
2018-12-17T14:04:40.564Z,21.00
2018-12-17T14:07:22.919Z,18.57
2018-12-17T14:09:59.457Z,18.43
2018-12-17T14:12:33.188Z,21.63
2018-12-17T14:15:04.665Z,26.07
2018-12-17T14:17:35.998Z,19.33
2018-12-17T14:20:19.489Z,19.83
2018-12-17T14:22:52.958Z,31.37
2018-12-17T14:25:23.433Z,20.23
2018-12-17T14:28:01.094Z,23.07
2018-12-17T14:30:32.375Z,22.83
2018-12-17T14:33:03.241Z,29.77
2018-12-17T14:35:34.320Z,33.27
2018-12-17T14:38:05.616Z,30.63
2018-12-17T14:40:36.793Z,28.50
2018-12-17T14:43:07.711Z,31.67
2018-12-17T14:45:38.793Z,34.03
2018-12-17T14:48:07.912Z,32.17
2018-12-17T14:50:39.000Z,30.60
2018-12-17T14:53:09.870Z,28.37
2018-12-17T14:55:40.974Z,34.57
2018-12-17T14:58:12.292Z,31.93
2018-12-17T15:00:46.050Z,33.20
2018-12-17T15:03:16.705Z,31.90
2018-12-17T15:05:54.632Z,25.60
2018-12-17T15:08:25.784Z,29.80
2018-12-17T15:10:56.664Z,33.03
2018-12-17T15:13:27.045Z,27.33
2018-12-17T15:16:04.708Z,25.07
2018-12-17T15:18:38.585Z,26.97
2018-12-17T15:21:09.724Z,25.03
2018-12-17T15:26:16.082Z,26.33
2018-12-17T15:28:46.742Z,24.10
2018-12-17T15:31:18.125Z,26.67
2018-12-17T15:33:49.137Z,15.93
2018-12-17T15:36:27.048Z,19.20
2018-12-17T15:38:56.342Z,20.43
2018-12-17T15:41:33.793Z,22.07
2018-12-17T15:44:04.848Z,18.33
2018-12-17T15:46:36.094Z,19.60
2018-12-17T15:49:11.610Z,18.23
2018-12-17T15:51:46.047Z,15.23
2018-12-17T15:54:17.437Z,18.37
2018-12-17T15:56:48.736Z,18.77
2018-12-17T15:59:20.052Z,17.47
2018-12-17T16:01:50.953Z,16.03
2018-12-17T16:04:27.050Z,15.60
2018-12-17T16:06:55.921Z,27.57
2018-12-17T16:09:25.051Z,24.40
2018-12-17T16:11:56.084Z,23.43
2018-12-17T16:14:33.924Z,18.63
2018-12-17T16:17:04.349Z,20.60
2018-12-17T16:19:33.753Z,23.97
2018-12-17T16:22:04.792Z,19.30
2018-12-17T16:24:35.260Z,21.43
2018-12-17T16:27:05.387Z,26.80
2018-12-17T16:29:42.432Z,19.47
2018-12-17T16:32:11.708Z,21.17
2018-12-17T16:34:42.590Z,15.27
2018-12-17T16:37:13.696Z,14.63
2018-12-17T16:39:44.601Z,15.93
2018-12-17T16:42:13.656Z,14.67
2018-12-17T16:44:44.881Z,16.27
2018-12-17T16:47:15.412Z,13.43
2018-12-17T16:49:46.392Z,16.23
2018-12-17T16:52:15.453Z,16.53
2018-12-17T16:54:46.176Z,18.27
2018-12-17T16:57:17.061Z,17.60
2018-12-17T16:59:54.409Z,15.67
2018-12-17T17:02:23.783Z,18.87
2018-12-17T17:05:04.358Z,18.13
2018-12-17T17:07:34.912Z,19.33
2018-12-17T17:10:08.490Z,21.20
2018-12-17T17:12:42.721Z,24.90
2018-12-17T17:15:16.240Z,18.03
2018-12-17T17:17:51.157Z,20.20
2018-12-17T17:20:21.677Z,14.90
2018-12-17T17:22:50.753Z,14.43
2018-12-17T17:25:22.091Z,10.93
2018-12-17T17:27:56.247Z,11.97
2018-12-17T17:30:27.952Z,11.43
2018-12-17T17:33:04.104Z,10.80
2018-12-17T17:35:33.400Z,9.63
2018-12-17T17:38:14.115Z,11.37
2018-12-17T17:40:44.704Z,11.90
2018-12-17T17:43:13.800Z,11.80
2018-12-17T17:45:45.346Z,12.57
2018-12-17T17:48:15.807Z,20.70
2018-12-17T17:50:49.681Z,19.40
2018-12-17T17:53:18.864Z,14.83
2018-12-17T17:55:48.289Z,29.37
2018-12-17T17:58:19.413Z,24.00
2018-12-17T18:00:50.700Z,16.27
2018-12-17T18:03:21.715Z,16.10
2018-12-17T18:05:52.288Z,17.23
2018-12-17T18:08:23.377Z,20.33
2018-12-17T18:11:01.313Z,21.00
2018-12-17T18:13:32.649Z,22.23
2018-12-17T18:16:10.145Z,17.23
2018-12-17T18:18:41.186Z,13.53
2018-12-17T18:21:12.165Z,14.93
2018-12-17T18:23:45.653Z,13.60
2018-12-17T18:26:14.792Z,18.57
2018-12-17T18:28:46.093Z,15.13
2018-12-17T18:31:14.852Z,13.07
2018-12-17T18:33:45.824Z,14.07
2018-12-17T18:36:16.801Z,14.63
2018-12-17T18:38:47.761Z,15.30
2018-12-17T18:41:16.440Z,16.83
2018-12-17T18:43:45.413Z,14.67
2018-12-17T18:46:16.181Z,13.90
2018-12-17T18:48:47.220Z,9.53
2018-12-17T18:51:18.611Z,9.23
2018-12-17T18:53:49.284Z,8.80
2018-12-17T18:56:29.781Z,9.67
2018-12-17T18:59:03.593Z,10.67
2018-12-17T19:01:36.048Z,10.40
2018-12-17T19:04:07.349Z,12.97
2018-12-17T19:06:38.425Z,11.20
2018-12-17T19:09:09.593Z,10.10
2018-12-17T19:11:38.909Z,10.17
2018-12-17T19:14:16.781Z,10.80
2018-12-17T19:16:50.056Z,11.80
2018-12-17T19:19:21.345Z,11.33
2018-12-17T19:21:50.622Z,10.27
2018-12-17T19:24:28.560Z,10.30
2018-12-17T19:26:59.721Z,10.97
2018-12-17T19:29:39.616Z,9.57
2018-12-17T19:32:08.503Z,10.80
2018-12-17T19:34:45.619Z,8.03
2018-12-17T19:37:16.510Z,7.23
2018-12-17T19:39:47.819Z,7.73
2018-12-17T19:42:18.346Z,8.63
2018-12-17T19:44:47.329Z,9.03
2018-12-17T19:47:25.617Z,7.60
2018-12-17T19:49:59.562Z,8.87
2018-12-17T19:52:30.235Z,9.23
2018-12-17T19:55:05.229Z,16.83
2018-12-17T19:57:36.487Z,13.10
2018-12-17T20:00:09.279Z,12.13
2018-12-17T20:02:39.669Z,12.57
2018-12-17T20:08:12.362Z,11.67
2018-12-17T20:10:41.345Z,11.53
2018-12-17T20:13:10.567Z,14.13
2018-12-17T20:15:48.520Z,9.53
2018-12-17T20:18:19.589Z,10.87
2018-12-17T20:20:48.450Z,11.30
2018-12-17T20:23:19.526Z,10.93
2018-12-17T20:25:48.468Z,10.93
2018-12-17T20:28:24.505Z,10.73
2018-12-17T20:30:56.160Z,10.13
2018-12-17T20:33:26.641Z,10.37
2018-12-17T20:35:58.104Z,10.03
2018-12-17T20:38:29.482Z,10.93
2018-12-17T20:40:59.872Z,10.80
2018-12-17T20:43:30.824Z,10.17
2018-12-17T20:46:00.172Z,11.73
2018-12-17T20:48:30.953Z,12.37
2018-12-17T20:51:08.013Z,11.97
2018-12-17T20:53:39.705Z,10.70
2018-12-17T20:56:10.104Z,10.80
2018-12-17T20:58:43.856Z,10.43
2018-12-17T21:01:14.951Z,12.50
2018-12-17T21:03:44.451Z,12.47
2018-12-17T21:06:18.744Z,10.90
2018-12-17T21:08:48.796Z,10.97
2018-12-17T21:11:19.966Z,13.77
2018-12-17T21:13:53.461Z,12.53
2018-12-17T21:16:24.312Z,14.10
2018-12-17T21:18:55.474Z,11.77
2018-12-17T21:21:32.504Z,13.70
2018-12-17T21:24:01.648Z,13.07
2018-12-17T21:26:39.072Z,12.73
2018-12-17T21:29:10.560Z,11.37
2018-12-17T21:31:41.224Z,14.03
2018-12-17T21:34:19.062Z,14.00
2018-12-17T21:36:52.258Z,15.30
2018-12-17T21:39:21.428Z,17.07
2018-12-17T21:41:53.145Z,13.83
2018-12-17T21:44:26.600Z,15.93
2018-12-17T21:46:57.014Z,17.43
2018-12-17T21:49:27.689Z,18.93
2018-12-17T21:51:58.461Z,17.27
2018-12-17T21:54:27.374Z,15.27
2018-12-17T21:57:05.295Z,15.07
2018-12-17T21:59:38.522Z,17.97
2018-12-17T22:02:08.000Z,16.17
2018-12-17T22:04:37.277Z,16.57
2018-12-17T22:07:10.529Z,19.77
2018-12-17T22:09:48.522Z,20.10
2018-12-17T22:12:17.676Z,21.80
2018-12-17T22:14:48.624Z,16.20
2018-12-17T22:17:20.185Z,21.83
2018-12-17T22:19:49.416Z,18.83
2018-12-17T22:22:23.713Z,19.70
2018-12-17T22:24:56.971Z,20.40
2018-12-17T22:27:28.487Z,20.07
2018-12-17T22:29:59.047Z,21.60
2018-12-17T22:32:30.133Z,21.90
2018-12-17T22:35:00.947Z,23.50
2018-12-17T22:37:30.189Z,18.13
2018-12-17T22:40:01.061Z,18.80
2018-12-17T22:42:32.218Z,19.03
2018-12-17T22:45:01.104Z,17.00
2018-12-17T22:47:30.054Z,17.97
2018-12-17T22:49:58.758Z,20.70
2018-12-17T22:52:29.163Z,19.23
2018-12-17T22:55:07.428Z,21.43
2018-12-17T22:57:36.430Z,17.33
2018-12-17T23:00:08.518Z,17.80
2018-12-17T23:02:37.327Z,19.77
2018-12-17T23:05:11.029Z,19.00
2018-12-17T23:07:42.294Z,15.73
2018-12-17T23:10:29.006Z,14.97
2018-12-17T23:13:11.173Z,18.87
2018-12-17T23:15:51.521Z,16.80
2018-12-17T23:18:24.664Z,17.53
2018-12-17T23:20:54.701Z,19.40
2018-12-17T23:23:28.739Z,17.67
2018-12-17T23:25:59.501Z,22.77
2018-12-17T23:28:29.092Z,22.53
2018-12-17T23:31:00.281Z,23.70
2018-12-17T23:33:33.016Z,20.83
2018-12-17T23:36:04.352Z,20.93
2018-12-17T23:38:35.530Z,21.83
2018-12-17T23:41:04.273Z,21.10
2018-12-17T23:43:35.272Z,18.57
2018-12-17T23:46:09.476Z,20.60
2018-12-17T23:48:40.234Z,23.63
2018-12-17T23:51:09.374Z,22.50
2018-12-17T23:53:40.488Z,24.43
2018-12-17T23:56:16.950Z,25.17
2018-12-17T23:58:47.545Z,23.00
